sensor_id;sensor_type;location;lat;lon;timestamp;pressure;altitude;pressure_sealevel;temperature;humidity
2563;BME280;1291;51.420;6.970;2022-10-16T00:01:59;99513.88;;;21.31;48.23
2563;BME280;1291;51.420;6.970;2022-10-16T00:04:25;99522.91;;;21.90;46.71
2563;BME280;1291;51.420;6.970;2022-10-16T00:06:50;99536.13;;;20.45;50.24
2563;BME280;1291;51.420;6.970;2022-10-16T00:17:01;99538.09;;;21.49;47.96
2563;BME280;1291;51.420;6.970;2022-10-16T00:22:02;99524.19;;;21.75;47.63
2563;BME280;1291;51.420;6.970;2022-10-16T00:24:28;99534.22;;;22.26;46.50
2563;BME280;1291;51.420;6.970;2022-10-16T00:26:53;99538.88;;;20.79;49.91
2563;BME280;1291;51.420;6.970;2022-10-16T00:29:19;99535.94;;;21.63;48.15
2563;BME280;1291;51.420;6.970;2022-10-16T00:31:47;99541.84;;;21.73;47.57
2563;BME280;1291;51.420;6.970;2022-10-16T00:47:41;99536.94;;;22.23;46.63
2563;BME280;1291;51.420;6.970;2022-10-16T00:52:46;99542.97;;;20.92;49.04
2563;BME280;1291;51.420;6.970;2022-10-16T01:44:41;99542.16;;;21.26;47.67
2563;BME280;1291;51.420;6.970;2022-10-16T01:47:09;99538.09;;;21.49;47.67
2563;BME280;1291;51.420;6.970;2022-10-16T02:07:40;99548.84;;;22.07;46.33
2563;BME280;1291;51.420;6.970;2022-10-16T02:10:08;99549.56;;;21.48;47.32
2563;BME280;1291;51.420;6.970;2022-10-16T02:28:19;99540.75;;;22.44;44.76
2563;BME280;1291;51.420;6.970;2022-10-16T02:31:03;99550.75;;;21.70;46.13
2563;BME280;1291;51.420;6.970;2022-10-16T02:33:31;99559.09;;;20.82;48.56
2563;BME280;1291;51.420;6.970;2022-10-16T02:35:58;99555.06;;;21.39;47.36
2563;BME280;1291;51.420;6.970;2022-10-16T02:38:25;99555.53;;;21.56;46.69
2563;BME280;1291;51.420;6.970;2022-10-16T02:40:51;99553.44;;;22.00;45.76
2563;BME280;1291;51.420;6.970;2022-10-16T02:43:17;99553.81;;;21.18;48.07
2563;BME280;1291;51.420;6.970;2022-10-16T02:45:43;99550.81;;;21.67;46.89
2563;BME280;1291;51.420;6.970;2022-10-16T02:48:08;99554.56;;;20.85;49.15
2563;BME280;1291;51.420;6.970;2022-10-16T03:06:05;99553.59;;;20.89;48.36
2563;BME280;1291;51.420;6.970;2022-10-16T03:54:16;99567.41;;;20.63;47.44
2563;BME280;1291;51.420;6.970;2022-10-16T04:17:23;99587.97;;;20.88;47.06
2563;BME280;1291;51.420;6.970;2022-10-16T04:22:24;99582.63;;;21.64;44.56
2563;BME280;1291;51.420;6.970;2022-10-16T04:27:25;99586.09;;;20.51;47.77
2563;BME280;1291;51.420;6.970;2022-10-16T04:32:26;99598.91;;;20.26;48.52
2563;BME280;1291;51.420;6.970;2022-10-16T04:34:52;99599.13;;;21.37;46.25
2563;BME280;1291;51.420;6.970;2022-10-16T04:39:53;99606.78;;;20.29;48.25
2563;BME280;1291;51.420;6.970;2022-10-16T04:44:54;99616.66;;;20.18;48.92
2563;BME280;1291;51.420;6.970;2022-10-16T04:47:19;99614.00;;;21.03;47.01
2563;BME280;1291;51.420;6.970;2022-10-16T04:49:45;99613.28;;;20.95;46.89
2563;BME280;1291;51.420;6.970;2022-10-16T04:57:21;99625.03;;;20.82;47.23
2563;BME280;1291;51.420;6.970;2022-10-16T04:59:47;99621.81;;;20.24;48.32
2563;BME280;1291;51.420;6.970;2022-10-16T05:02:12;99629.75;;;20.66;47.66
2563;BME280;1291;51.420;6.970;2022-10-16T05:04:38;99640.25;;;20.69;46.88
2563;BME280;1291;51.420;6.970;2022-10-16T05:09:39;99640.53;;;20.08;49.00
2563;BME280;1291;51.420;6.970;2022-10-16T05:12:05;99648.25;;;20.19;48.95
2563;BME280;1291;51.420;6.970;2022-10-16T05:17:06;99645.38;;;19.83;50.11
2563;BME280;1291;51.420;6.970;2022-10-16T05:19:31;99654.66;;;20.94;46.88
2563;BME280;1291;51.420;6.970;2022-10-16T05:29:42;99666.22;;;19.97;49.58
2563;BME280;1291;51.420;6.970;2022-10-16T05:32:08;99657.81;;;21.10;46.56
2563;BME280;1291;51.420;6.970;2022-10-16T05:37:10;99658.47;;;20.36;49.27
2563;BME280;1291;51.420;6.970;2022-10-16T05:39:37;99657.78;;;20.26;48.83
2563;BME280;1291;51.420;6.970;2022-10-16T05:47:13;99659.22;;;19.96;49.59
2563;BME280;1291;51.420;6.970;2022-10-16T05:49:39;99657.00;;;20.21;49.21
2563;BME280;1291;51.420;6.970;2022-10-16T05:52:05;99673.03;;;20.55;48.38
2563;BME280;1291;51.420;6.970;2022-10-16T06:04:51;99686.88;;;21.09;46.80
2563;BME280;1291;51.420;6.970;2022-10-16T06:07:19;99698.31;;;21.50;45.55
2563;BME280;1291;51.420;6.970;2022-10-16T06:20:06;99719.00;;;19.94;49.78
2563;BME280;1291;51.420;6.970;2022-10-16T06:22:31;99726.44;;;20.70;48.12
2563;BME280;1291;51.420;6.970;2022-10-16T06:27:33;99723.72;;;20.73;47.94
2563;BME280;1291;51.420;6.970;2022-10-16T06:40:20;99731.97;;;20.54;48.47
2563;BME280;1291;51.420;6.970;2022-10-16T06:42:46;99740.63;;;20.63;48.24
2563;BME280;1291;51.420;6.970;2022-10-16T06:50:21;99754.09;;;20.94;47.71
2563;BME280;1291;51.420;6.970;2022-10-16T07:18:38;99816.78;;;20.81;47.80
2563;BME280;1291;51.420;6.970;2022-10-16T07:21:06;99811.56;;;20.78;48.21
2563;BME280;1291;51.420;6.970;2022-10-16T07:23:32;99828.72;;;20.52;48.57
2563;BME280;1291;51.420;6.970;2022-10-16T07:25:58;99821.22;;;21.23;47.52
2563;BME280;1291;51.420;6.970;2022-10-16T07:28:23;99826.94;;;22.24;44.16
2563;BME280;1291;51.420;6.970;2022-10-16T07:30:49;99826.47;;;21.24;47.30
2563;BME280;1291;51.420;6.970;2022-10-16T07:33:14;99829.56;;;21.03;47.24
2563;BME280;1291;51.420;6.970;2022-10-16T07:35:50;99824.00;;;22.37;44.63
2563;BME280;1291;51.420;6.970;2022-10-16T07:38:16;99834.53;;;22.38;44.57
2563;BME280;1291;51.420;6.970;2022-10-16T07:40:42;99847.22;;;21.85;45.50
2563;BME280;1291;51.420;6.970;2022-10-16T07:43:07;99842.16;;;22.50;44.08
2563;BME280;1291;51.420;6.970;2022-10-16T07:45:33;99844.22;;;21.61;46.68
2563;BME280;1291;51.420;6.970;2022-10-16T07:47:58;99859.50;;;21.02;48.19
2563;BME280;1291;51.420;6.970;2022-10-16T07:50:23;99854.34;;;20.96;48.49
2563;BME280;1291;51.420;6.970;2022-10-16T07:52:49;99860.75;;;21.29;47.75
2563;BME280;1291;51.420;6.970;2022-10-16T07:55:14;99863.66;;;21.15;47.66
2563;BME280;1291;51.420;6.970;2022-10-16T07:57:40;99862.06;;;22.31;45.58
2563;BME280;1291;51.420;6.970;2022-10-16T08:00:05;99867.47;;;21.86;46.37
2563;BME280;1291;51.420;6.970;2022-10-16T08:02:31;99870.75;;;21.57;47.42
2563;BME280;1291;51.420;6.970;2022-10-16T08:04:57;99870.81;;;21.94;46.79
2563;BME280;1291;51.420;6.970;2022-10-16T08:07:22;99876.72;;;22.05;46.29
2563;BME280;1291;51.420;6.970;2022-10-16T08:09:51;99883.81;;;21.64;47.06
2563;BME280;1291;51.420;6.970;2022-10-16T08:12:17;99881.56;;;21.44;47.27
2563;BME280;1291;51.420;6.970;2022-10-16T08:14:43;99890.78;;;21.67;46.43
2563;BME280;1291;51.420;6.970;2022-10-16T08:17:08;99905.47;;;21.82;46.45
2563;BME280;1291;51.420;6.970;2022-10-16T08:19:33;99894.59;;;21.52;46.31
2563;BME280;1291;51.420;6.970;2022-10-16T08:22:00;99898.09;;;21.54;47.17
2563;BME280;1291;51.420;6.970;2022-10-16T08:24:26;99899.75;;;22.75;43.92
2563;BME280;1291;51.420;6.970;2022-10-16T08:26:53;99900.75;;;22.35;44.89
2563;BME280;1291;51.420;6.970;2022-10-16T08:29:19;99909.66;;;22.31;45.12
2563;BME280;1291;51.420;6.970;2022-10-16T08:31:45;99920.03;;;22.00;46.09
2563;BME280;1291;51.420;6.970;2022-10-16T08:34:10;99920.63;;;22.87;44.23
2563;BME280;1291;51.420;6.970;2022-10-16T08:36:35;99921.56;;;22.10;45.29
2563;BME280;1291;51.420;6.970;2022-10-16T08:39:01;99925.53;;;21.89;44.36
2563;BME280;1291;51.420;6.970;2022-10-16T08:47:20;99938.50;;;22.42;43.67
2563;BME280;1291;51.420;6.970;2022-10-16T08:49:57;99950.69;;;21.66;45.48
2563;BME280;1291;51.420;6.970;2022-10-16T08:52:28;99945.91;;;22.99;42.62
2563;BME280;1291;51.420;6.970;2022-10-16T08:54:55;99951.06;;;23.05;43.14
2563;BME280;1291;51.420;6.970;2022-10-16T08:57:22;99961.44;;;22.77;43.10
2563;BME280;1291;51.420;6.970;2022-10-16T08:59:49;99972.72;;;22.48;43.85
2563;BME280;1291;51.420;6.970;2022-10-16T09:02:38;99962.19;;;22.84;43.11
2563;BME280;1291;51.420;6.970;2022-10-16T09:13:29;99971.84;;;22.49;44.03
2563;BME280;1291;51.420;6.970;2022-10-16T09:18:50;99981.28;;;22.95;43.06
2563;BME280;1291;51.420;6.970;2022-10-16T09:21:33;99982.25;;;22.93;43.34
2563;BME280;1291;51.420;6.970;2022-10-16T09:24:20;99986.00;;;23.20;42.31
2563;BME280;1291;51.420;6.970;2022-10-16T09:26:46;99986.84;;;23.22;42.16
2563;BME280;1291;51.420;6.970;2022-10-16T09:29:13;99987.88;;;22.79;43.52
2563;BME280;1291;51.420;6.970;2022-10-16T09:31:40;99985.44;;;22.71;43.53
2563;BME280;1291;51.420;6.970;2022-10-16T09:34:20;99987.38;;;23.99;40.96
2563;BME280;1291;51.420;6.970;2022-10-16T09:36:53;99993.16;;;23.16;42.47
2563;BME280;1291;51.420;6.970;2022-10-16T09:39:18;99999.84;;;23.31;41.71
2563;BME280;1291;51.420;6.970;2022-10-16T09:41:45;99994.69;;;23.58;40.59
2563;BME280;1291;51.420;6.970;2022-10-16T09:44:21;99981.91;;;23.08;42.23
2563;BME280;1291;51.420;6.970;2022-10-16T09:46:48;99992.94;;;23.25;42.67
2563;BME280;1291;51.420;6.970;2022-10-16T09:49:22;99987.56;;;24.52;39.91
2563;BME280;1291;51.420;6.970;2022-10-16T09:51:48;99989.06;;;23.70;41.53
2563;BME280;1291;51.420;6.970;2022-10-16T09:54:16;99996.09;;;23.38;42.57
2563;BME280;1291;51.420;6.970;2022-10-16T09:56:42;100003.22;;;23.02;42.60
2563;BME280;1291;51.420;6.970;2022-10-16T09:59:15;100000.34;;;23.45;41.38
2563;BME280;1291;51.420;6.970;2022-10-16T10:01:45;99994.19;;;23.10;42.05
2563;BME280;1291;51.420;6.970;2022-10-16T10:04:11;99998.44;;;24.43;39.94
2563;BME280;1291;51.420;6.970;2022-10-16T10:06:42;99999.31;;;23.84;40.76
2563;BME280;1291;51.420;6.970;2022-10-16T10:09:47;100001.91;;;22.82;42.79
2563;BME280;1291;51.420;6.970;2022-10-16T10:12:24;99995.22;;;23.71;40.93
2563;BME280;1291;51.420;6.970;2022-10-16T10:14:52;100009.06;;;23.49;41.61
2563;BME280;1291;51.420;6.970;2022-10-16T10:17:21;100004.53;;;23.54;41.56
2563;BME280;1291;51.420;6.970;2022-10-16T10:22:18;100007.81;;;23.95;40.81
2563;BME280;1291;51.420;6.970;2022-10-16T10:38:52;100013.84;;;23.67;40.23
2563;BME280;1291;51.420;6.970;2022-10-16T10:44:20;100016.63;;;23.30;40.64
2563;BME280;1291;51.420;6.970;2022-10-16T10:47:00;100015.88;;;24.52;38.25
2563;BME280;1291;51.420;6.970;2022-10-16T10:49:53;100014.16;;;24.49;38.30
2563;BME280;1291;51.420;6.970;2022-10-16T10:52:41;100009.94;;;24.72;38.13
2563;BME280;1291;51.420;6.970;2022-10-16T10:57:55;100008.03;;;24.19;39.10
2563;BME280;1291;51.420;6.970;2022-10-16T11:06:02;100013.84;;;24.00;38.39
2563;BME280;1291;51.420;6.970;2022-10-16T11:08:35;100012.44;;;24.18;38.32
2563;BME280;1291;51.420;6.970;2022-10-16T11:11:15;100016.50;;;24.60;37.68
2563;BME280;1291;51.420;6.970;2022-10-16T11:13:53;100012.69;;;23.46;39.47
2563;BME280;1291;51.420;6.970;2022-10-16T11:16:27;100018.16;;;24.34;38.42
2563;BME280;1291;51.420;6.970;2022-10-16T11:19:03;100016.44;;;24.33;38.46
2563;BME280;1291;51.420;6.970;2022-10-16T11:21:37;100003.69;;;25.78;35.79
2563;BME280;1291;51.420;6.970;2022-10-16T11:26:41;100013.59;;;24.96;38.12
2563;BME280;1291;51.420;6.970;2022-10-16T11:29:25;100016.13;;;25.27;36.76
2563;BME280;1291;51.420;6.970;2022-10-16T11:31:57;100022.03;;;25.60;36.33
2563;BME280;1291;51.420;6.970;2022-10-16T11:34:26;100021.44;;;25.52;36.93
2563;BME280;1291;51.420;6.970;2022-10-16T11:37:17;100024.44;;;25.15;37.64
2563;BME280;1291;51.420;6.970;2022-10-16T11:39:47;100024.09;;;24.72;38.59
2563;BME280;1291;51.420;6.970;2022-10-16T11:42:24;100018.47;;;26.56;34.78
2563;BME280;1291;51.420;6.970;2022-10-16T11:48:05;100027.44;;;24.51;37.45
2563;BME280;1291;51.420;6.970;2022-10-16T11:50:40;100019.81;;;24.68;37.60
2563;BME280;1291;51.420;6.970;2022-10-16T11:54:01;100019.88;;;25.47;36.67
2563;BME280;1291;51.420;6.970;2022-10-16T11:56:37;100027.72;;;25.50;36.10
2563;BME280;1291;51.420;6.970;2022-10-16T12:01:40;100043.72;;;25.48;36.44
2563;BME280;1291;51.420;6.970;2022-10-16T12:04:19;100032.38;;;25.16;37.22
2563;BME280;1291;51.420;6.970;2022-10-16T12:06:59;100038.72;;;24.85;37.28
2563;BME280;1291;51.420;6.970;2022-10-16T12:09:32;100037.69;;;25.16;36.99
2563;BME280;1291;51.420;6.970;2022-10-16T12:11:58;100042.53;;;25.32;36.07
2563;BME280;1291;51.420;6.970;2022-10-16T12:17:20;100051.19;;;25.10;37.08
2563;BME280;1291;51.420;6.970;2022-10-16T12:20:39;100040.59;;;25.37;36.09
2563;BME280;1291;51.420;6.970;2022-10-16T12:23:19;100038.34;;;25.75;35.62
2563;BME280;1291;51.420;6.970;2022-10-16T12:25:55;100044.31;;;26.30;35.16
2563;BME280;1291;51.420;6.970;2022-10-16T12:28:26;100046.34;;;24.68;38.48
2563;BME280;1291;51.420;6.970;2022-10-16T12:31:02;100038.97;;;25.81;36.14
2563;BME280;1291;51.420;6.970;2022-10-16T12:33:30;100038.22;;;25.28;37.29
2563;BME280;1291;51.420;6.970;2022-10-16T12:36:04;100047.09;;;25.00;36.46
2563;BME280;1291;51.420;6.970;2022-10-16T12:41:10;100047.72;;;25.60;35.96
2563;BME280;1291;51.420;6.970;2022-10-16T12:43:44;100053.66;;;24.60;36.83
2563;BME280;1291;51.420;6.970;2022-10-16T12:48:37;100053.78;;;25.65;35.95
2563;BME280;1291;51.420;6.970;2022-10-16T12:54:04;100049.91;;;24.95;36.18
2563;BME280;1291;51.420;6.970;2022-10-16T13:02:08;100056.34;;;25.68;35.49
2563;BME280;1291;51.420;6.970;2022-10-16T13:07:53;100061.38;;;25.24;36.47
2563;BME280;1291;51.420;6.970;2022-10-16T13:10:28;100059.19;;;26.12;34.56
2563;BME280;1291;51.420;6.970;2022-10-16T13:18:57;100048.88;;;25.28;35.65
2563;BME280;1291;51.420;6.970;2022-10-16T13:24:25;100053.50;;;25.21;35.69
2563;BME280;1291;51.420;6.970;2022-10-16T13:27:09;100071.66;;;24.80;36.14
2563;BME280;1291;51.420;6.970;2022-10-16T13:29:39;100069.13;;;25.03;36.16
2563;BME280;1291;51.420;6.970;2022-10-16T13:32:10;100072.47;;;25.37;35.17
2563;BME280;1291;51.420;6.970;2022-10-16T13:34:45;100081.31;;;25.37;35.30
2563;BME280;1291;51.420;6.970;2022-10-16T13:37:19;100083.03;;;25.90;34.70
2563;BME280;1291;51.420;6.970;2022-10-16T13:39:45;100078.00;;;26.31;34.26
2563;BME280;1291;51.420;6.970;2022-10-16T13:44:50;100070.59;;;26.63;33.33
2563;BME280;1291;51.420;6.970;2022-10-16T13:47:29;100072.78;;;26.28;33.71
2563;BME280;1291;51.420;6.970;2022-10-16T13:52:30;100063.69;;;25.85;34.10
2563;BME280;1291;51.420;6.970;2022-10-16T13:54:56;100058.50;;;26.31;33.42
2563;BME280;1291;51.420;6.970;2022-10-16T13:57:23;100065.13;;;25.70;34.30
2563;BME280;1291;51.420;6.970;2022-10-16T13:59:50;100064.38;;;27.07;32.53
2563;BME280;1291;51.420;6.970;2022-10-16T14:02:36;100061.41;;;27.14;32.20
2563;BME280;1291;51.420;6.970;2022-10-16T14:05:07;100059.25;;;27.24;32.55
2563;BME280;1291;51.420;6.970;2022-10-16T14:07:34;100064.78;;;26.52;32.92
2563;BME280;1291;51.420;6.970;2022-10-16T14:10:06;100070.84;;;26.55;33.41
2563;BME280;1291;51.420;6.970;2022-10-16T14:12:33;100066.25;;;26.60;33.29
2563;BME280;1291;51.420;6.970;2022-10-16T14:14:59;100081.19;;;26.87;32.97
2563;BME280;1291;51.420;6.970;2022-10-16T14:17:28;100077.72;;;26.85;33.39
2563;BME280;1291;51.420;6.970;2022-10-16T14:19:57;100091.13;;;26.59;33.39
2563;BME280;1291;51.420;6.970;2022-10-16T14:22:30;100090.38;;;26.32;33.98
2563;BME280;1291;51.420;6.970;2022-10-16T14:25:20;100089.41;;;26.35;33.66
2563;BME280;1291;51.420;6.970;2022-10-16T14:28:23;100088.94;;;26.47;33.51
2563;BME280;1291;51.420;6.970;2022-10-16T14:30:59;100088.97;;;26.46;34.02
2563;BME280;1291;51.420;6.970;2022-10-16T14:36:13;100052.59;;;27.12;32.56
2563;BME280;1291;51.420;6.970;2022-10-16T14:38:41;100048.22;;;27.11;33.09
2563;BME280;1291;51.420;6.970;2022-10-16T14:41:07;100068.81;;;27.30;32.91
2563;BME280;1291;51.420;6.970;2022-10-16T14:43:38;100076.63;;;26.90;34.05
2563;BME280;1291;51.420;6.970;2022-10-16T14:46:12;100078.09;;;27.19;33.98
2563;BME280;1291;51.420;6.970;2022-10-16T14:48:43;100081.38;;;27.04;33.95
2563;BME280;1291;51.420;6.970;2022-10-16T14:51:18;100086.19;;;27.16;33.45
2563;BME280;1291;51.420;6.970;2022-10-16T14:53:44;100069.41;;;27.14;33.65
2563;BME280;1291;51.420;6.970;2022-10-16T14:56:19;100070.22;;;27.16;34.26
2563;BME280;1291;51.420;6.970;2022-10-16T14:58:44;100075.38;;;27.21;33.75
2563;BME280;1291;51.420;6.970;2022-10-16T15:01:10;100081.56;;;27.21;33.87
2563;BME280;1291;51.420;6.970;2022-10-16T15:03:37;100078.19;;;27.16;34.03
2563;BME280;1291;51.420;6.970;2022-10-16T15:06:02;100073.28;;;27.07;33.84
2563;BME280;1291;51.420;6.970;2022-10-16T15:08:28;100080.75;;;26.75;34.63
2563;BME280;1291;51.420;6.970;2022-10-16T15:10:54;100083.56;;;26.94;34.45
2563;BME280;1291;51.420;6.970;2022-10-16T15:13:19;100085.53;;;26.89;34.48
2563;BME280;1291;51.420;6.970;2022-10-16T15:15:46;100077.63;;;26.88;34.51
2563;BME280;1291;51.420;6.970;2022-10-16T15:18:12;100076.22;;;26.77;34.61
2563;BME280;1291;51.420;6.970;2022-10-16T15:20:40;100072.75;;;26.75;35.06
2563;BME280;1291;51.420;6.970;2022-10-16T15:23:12;100077.72;;;26.85;35.07
2563;BME280;1291;51.420;6.970;2022-10-16T15:25:42;100073.75;;;26.95;34.92
2563;BME280;1291;51.420;6.970;2022-10-16T15:28:09;100062.28;;;26.93;35.18
2563;BME280;1291;51.420;6.970;2022-10-16T15:30:37;100065.47;;;26.80;34.99
2563;BME280;1291;51.420;6.970;2022-10-16T15:33:03;100060.25;;;26.77;35.43
2563;BME280;1291;51.420;6.970;2022-10-16T15:35:29;100068.69;;;26.89;35.51
2563;BME280;1291;51.420;6.970;2022-10-16T15:37:57;100061.78;;;26.83;35.57
2563;BME280;1291;51.420;6.970;2022-10-16T15:40:23;100061.00;;;26.81;35.89
2563;BME280;1291;51.420;6.970;2022-10-16T15:42:49;100049.25;;;26.17;37.28
2563;BME280;1291;51.420;6.970;2022-10-16T15:45:17;100046.50;;;26.66;36.82
2563;BME280;1291;51.420;6.970;2022-10-16T15:47:44;100041.19;;;26.66;36.86
2563;BME280;1291;51.420;6.970;2022-10-16T15:50:14;100038.69;;;26.61;37.28
2563;BME280;1291;51.420;6.970;2022-10-16T15:52:40;100043.16;;;26.61;37.57
2563;BME280;1291;51.420;6.970;2022-10-16T15:55:10;100044.50;;;26.71;37.11
2563;BME280;1291;51.420;6.970;2022-10-16T15:57:37;100050.16;;;26.16;37.98
2563;BME280;1291;51.420;6.970;2022-10-16T16:00:06;100047.66;;;26.35;37.44
2563;BME280;1291;51.420;6.970;2022-10-16T16:02:32;100054.84;;;26.33;37.69
2563;BME280;1291;51.420;6.970;2022-10-16T16:04:57;100055.22;;;26.70;36.79
2563;BME280;1291;51.420;6.970;2022-10-16T16:07:22;100053.41;;;26.72;36.76
2563;BME280;1291;51.420;6.970;2022-10-16T16:09:48;100051.03;;;26.64;36.79
2563;BME280;1291;51.420;6.970;2022-10-16T16:12:13;100055.56;;;26.62;36.83
2563;BME280;1291;51.420;6.970;2022-10-16T16:14:39;100045.75;;;26.62;36.43
2563;BME280;1291;51.420;6.970;2022-10-16T16:17:04;100055.66;;;26.59;37.06
2563;BME280;1291;51.420;6.970;2022-10-16T16:19:30;100058.06;;;25.94;38.27
2563;BME280;1291;51.420;6.970;2022-10-16T16:21:56;100050.34;;;26.12;37.85
2563;BME280;1291;51.420;6.970;2022-10-16T16:24:22;100055.84;;;26.31;37.34
2563;BME280;1291;51.420;6.970;2022-10-16T16:26:47;100060.97;;;26.12;37.37
2563;BME280;1291;51.420;6.970;2022-10-16T16:29:14;100068.97;;;26.35;36.87
2563;BME280;1291;51.420;6.970;2022-10-16T16:31:40;100063.19;;;26.24;36.71
2563;BME280;1291;51.420;6.970;2022-10-16T16:34:06;100057.38;;;26.13;37.11
2563;BME280;1291;51.420;6.970;2022-10-16T16:36:32;100058.59;;;26.04;37.28
2563;BME280;1291;51.420;6.970;2022-10-16T16:38:58;100059.03;;;26.17;36.81
2563;BME280;1291;51.420;6.970;2022-10-16T16:41:25;100063.59;;;26.13;36.97
2563;BME280;1291;51.420;6.970;2022-10-16T16:43:53;100068.75;;;25.93;38.15
2563;BME280;1291;51.420;6.970;2022-10-16T16:46:19;100072.38;;;25.90;37.70
2563;BME280;1291;51.420;6.970;2022-10-16T16:48:45;100078.69;;;25.88;37.30
2563;BME280;1291;51.420;6.970;2022-10-16T16:51:16;100082.56;;;25.77;37.37
2563;BME280;1291;51.420;6.970;2022-10-16T16:53:46;100078.78;;;25.84;37.30
2563;BME280;1291;51.420;6.970;2022-10-16T16:56:12;100079.22;;;25.72;37.47
2563;BME280;1291;51.420;6.970;2022-10-16T16:58:38;100082.78;;;25.71;37.55
2563;BME280;1291;51.420;6.970;2022-10-16T17:01:09;100091.72;;;25.70;37.35
2563;BME280;1291;51.420;6.970;2022-10-16T17:03:35;100100.16;;;25.56;38.03
2563;BME280;1291;51.420;6.970;2022-10-16T17:06:07;100096.59;;;25.31;38.41
2563;BME280;1291;51.420;6.970;2022-10-16T17:08:34;100098.13;;;25.38;38.45
2563;BME280;1291;51.420;6.970;2022-10-16T17:11:00;100096.69;;;25.54;38.08
2563;BME280;1291;51.420;6.970;2022-10-16T17:13:31;100102.88;;;25.55;38.02
2563;BME280;1291;51.420;6.970;2022-10-16T17:16:00;100092.47;;;25.49;38.11
2563;BME280;1291;51.420;6.970;2022-10-16T17:18:25;100096.19;;;25.43;38.45
2563;BME280;1291;51.420;6.970;2022-10-16T17:20:51;100090.50;;;25.54;38.28
2563;BME280;1291;51.420;6.970;2022-10-16T17:23:18;100093.63;;;25.40;38.14
2563;BME280;1291;51.420;6.970;2022-10-16T17:25:43;100093.63;;;25.40;38.35
2563;BME280;1291;51.420;6.970;2022-10-16T17:28:10;100105.88;;;25.44;38.54
2563;BME280;1291;51.420;6.970;2022-10-16T17:30:37;100110.13;;;25.50;38.35
2563;BME280;1291;51.420;6.970;2022-10-16T17:33:03;100112.84;;;25.48;38.43
2563;BME280;1291;51.420;6.970;2022-10-16T17:35:36;100122.97;;;25.37;38.52
2563;BME280;1291;51.420;6.970;2022-10-16T17:38:04;100115.31;;;25.28;38.75
2563;BME280;1291;51.420;6.970;2022-10-16T17:40:30;100118.16;;;25.48;38.33
2563;BME280;1291;51.420;6.970;2022-10-16T17:42:56;100115.22;;;25.31;38.89
2563;BME280;1291;51.420;6.970;2022-10-16T17:45:21;100099.91;;;25.37;38.40
2563;BME280;1291;51.420;6.970;2022-10-16T17:47:46;100111.94;;;25.49;38.37
2563;BME280;1291;51.420;6.970;2022-10-16T17:50:12;100114.03;;;25.39;38.40
2563;BME280;1291;51.420;6.970;2022-10-16T17:52:37;100107.13;;;25.60;37.72
2563;BME280;1291;51.420;6.970;2022-10-16T17:55:03;100100.78;;;25.64;38.04
2563;BME280;1291;51.420;6.970;2022-10-16T17:57:29;100105.38;;;25.59;38.00
2563;BME280;1291;51.420;6.970;2022-10-16T17:59:54;100106.44;;;25.54;38.54
2563;BME280;1291;51.420;6.970;2022-10-16T18:02:20;100120.72;;;25.51;37.94
2563;BME280;1291;51.420;6.970;2022-10-16T18:04:49;100115.06;;;25.62;37.67
2563;BME280;1291;51.420;6.970;2022-10-16T18:07:18;100118.22;;;25.47;38.35
2563;BME280;1291;51.420;6.970;2022-10-16T18:09:43;100115.66;;;25.43;38.90
2563;BME280;1291;51.420;6.970;2022-10-16T18:12:09;100114.97;;;25.09;39.20
2563;BME280;1291;51.420;6.970;2022-10-16T18:14:34;100118.13;;;25.23;38.39
2563;BME280;1291;51.420;6.970;2022-10-16T18:17:00;100117.53;;;24.83;40.02
2563;BME280;1291;51.420;6.970;2022-10-16T18:19:26;100111.63;;;25.32;38.63
2563;BME280;1291;51.420;6.970;2022-10-16T18:21:52;100121.34;;;25.03;39.50
2563;BME280;1291;51.420;6.970;2022-10-16T18:24:21;100115.69;;;25.42;38.37
2563;BME280;1291;51.420;6.970;2022-10-16T18:26:49;100105.69;;;25.50;38.00
2563;BME280;1291;51.420;6.970;2022-10-16T18:29:16;100106.47;;;24.69;40.01
2563;BME280;1291;51.420;6.970;2022-10-16T18:31:42;100101.09;;;25.29;39.63
2563;BME280;1291;51.420;6.970;2022-10-16T18:34:08;100106.75;;;24.90;39.62
2563;BME280;1291;51.420;6.970;2022-10-16T18:36:34;100100.00;;;25.34;39.08
2563;BME280;1291;51.420;6.970;2022-10-16T18:39:02;100111.56;;;25.05;39.41
2563;BME280;1291;51.420;6.970;2022-10-16T18:41:28;100109.97;;;24.71;40.34
2563;BME280;1291;51.420;6.970;2022-10-16T18:43:54;100102.41;;;24.57;41.06
2563;BME280;1291;51.420;6.970;2022-10-16T18:46:24;100104.75;;;25.24;39.39
2563;BME280;1291;51.420;6.970;2022-10-16T18:48:50;100119.91;;;24.33;41.67
2563;BME280;1291;51.420;6.970;2022-10-16T18:51:27;100122.34;;;24.72;41.10
2563;BME280;1291;51.420;6.970;2022-10-16T18:53:54;100114.13;;;24.80;40.89
2563;BME280;1291;51.420;6.970;2022-10-16T18:56:21;100122.97;;;24.19;42.57
2563;BME280;1291;51.420;6.970;2022-10-16T18:58:48;100129.16;;;25.09;40.37
2563;BME280;1291;51.420;6.970;2022-10-16T19:01:16;100140.59;;;25.39;39.57
2563;BME280;1291;51.420;6.970;2022-10-16T19:03:45;100159.91;;;25.16;40.46
2563;BME280;1291;51.420;6.970;2022-10-16T19:06:13;100161.34;;;25.28;40.43
2563;BME280;1291;51.420;6.970;2022-10-16T19:08:39;100172.69;;;23.77;45.21
2563;BME280;1291;51.420;6.970;2022-10-16T19:11:07;100179.97;;;24.03;45.33
2563;BME280;1291;51.420;6.970;2022-10-16T19:13:36;100192.91;;;24.48;45.68
2563;BME280;1291;51.420;6.970;2022-10-16T19:16:03;100201.81;;;24.45;45.66
2563;BME280;1291;51.420;6.970;2022-10-16T19:18:29;100208.88;;;25.09;44.40
2563;BME280;1291;51.420;6.970;2022-10-16T19:21:15;100203.16;;;25.21;43.60
2563;BME280;1291;51.420;6.970;2022-10-16T19:23:41;100199.50;;;25.54;42.85
2563;BME280;1291;51.420;6.970;2022-10-16T19:26:09;100182.59;;;24.70;46.17
2563;BME280;1291;51.420;6.970;2022-10-16T19:28:35;100184.03;;;24.80;45.32
2563;BME280;1291;51.420;6.970;2022-10-16T19:31:07;100173.09;;;24.28;47.51
2563;BME280;1291;51.420;6.970;2022-10-16T19:33:34;100186.09;;;24.71;46.18
2563;BME280;1291;51.420;6.970;2022-10-16T19:36:29;100182.09;;;24.56;46.87
2563;BME280;1291;51.420;6.970;2022-10-16T19:38:57;100173.22;;;25.44;43.56
2563;BME280;1291;51.420;6.970;2022-10-16T19:41:24;100179.94;;;25.81;42.42
2563;BME280;1291;51.420;6.970;2022-10-16T19:43:50;100189.06;;;25.19;44.77
2563;BME280;1291;51.420;6.970;2022-10-16T19:46:19;100191.03;;;25.42;43.69
2563;BME280;1291;51.420;6.970;2022-10-16T19:48:45;100196.94;;;24.93;45.58
2563;BME280;1291;51.420;6.970;2022-10-16T19:51:15;100188.34;;;25.69;42.83